sensor_id;sensor_type;location;lat;lon;timestamp;pressure;altitude;pressure_sealevel;temperature;humidity
73063;BME280;61230;46.328;19.972;2022-12-28T00:01:51;102067.06;;;0.94;76.07
73063;BME280;61230;46.328;19.972;2022-12-28T00:04:18;102066.25;;;0.93;73.44
73063;BME280;61230;46.328;19.972;2022-12-28T00:06:46;102067.06;;;0.94;73.34
73063;BME280;61230;46.328;19.972;2022-12-28T00:09:16;102054.13;;;0.94;73.02
73063;BME280;61230;46.328;19.972;2022-12-28T00:11:45;102063.69;;;0.92;73.71
73063;BME280;61230;46.328;19.972;2022-12-28T00:14:12;102056.03;;;0.87;73.22
73063;BME280;61230;46.328;19.972;2022-12-28T00:16:41;102050.94;;;0.84;73.37
73063;BME280;61230;46.328;19.972;2022-12-28T00:19:11;102045.03;;;0.79;73.58
73063;BME280;61230;46.328;19.972;2022-12-28T00:21:40;102054.22;;;0.91;72.80
73063;BME280;61230;46.328;19.972;2022-12-28T00:24:11;102053.16;;;0.98;72.28
73063;BME280;61230;46.328;19.972;2022-12-28T00:26:42;102057.69;;;0.90;73.05
73063;BME280;61230;46.328;19.972;2022-12-28T00:29:10;102067.84;;;0.97;72.87
73063;BME280;61230;46.328;19.972;2022-12-28T00:31:38;102063.53;;;0.98;72.66
73063;BME280;61230;46.328;19.972;2022-12-28T00:34:06;102060.72;;;1.05;72.02
73063;BME280;61230;46.328;19.972;2022-12-28T00:36:33;102060.97;;;0.96;74.06
73063;BME280;61230;46.328;19.972;2022-12-28T00:39:21;102072.25;;;0.94;75.81
73063;BME280;61230;46.328;19.972;2022-12-28T00:41:48;102072.31;;;0.92;74.53
73063;BME280;61230;46.328;19.972;2022-12-28T00:44:16;102076.41;;;1.01;74.49
73063;BME280;61230;46.328;19.972;2022-12-28T00:46:44;102074.69;;;1.00;74.97
73063;BME280;61230;46.328;19.972;2022-12-28T00:49:12;102089.38;;;0.99;73.82
73063;BME280;61230;46.328;19.972;2022-12-28T00:51:39;102088.63;;;0.96;74.62
73063;BME280;61230;46.328;19.972;2022-12-28T00:54:07;102092.91;;;0.97;74.05
73063;BME280;61230;46.328;19.972;2022-12-28T00:56:35;102096.34;;;0.97;74.67
73063;BME280;61230;46.328;19.972;2022-12-28T00:59:02;102097.25;;;0.96;74.85
73063;BME280;61230;46.328;19.972;2022-12-28T01:01:30;102086.12;;;0.93;74.88
73063;BME280;61230;46.328;19.972;2022-12-28T01:03:58;102097.34;;;0.93;76.33
73063;BME280;61230;46.328;19.972;2022-12-28T01:06:27;102098.34;;;0.88;74.87
73063;BME280;61230;46.328;19.972;2022-12-28T01:08:56;102089.06;;;0.79;72.91
73063;BME280;61230;46.328;19.972;2022-12-28T01:11:28;102085.53;;;0.82;72.86
73063;BME280;61230;46.328;19.972;2022-12-28T01:13:59;102082.97;;;0.80;76.48
73063;BME280;61230;46.328;19.972;2022-12-28T01:16:32;102085.62;;;0.77;78.89
73063;BME280;61230;46.328;19.972;2022-12-28T01:19:03;102083.12;;;0.74;79.44
73063;BME280;61230;46.328;19.972;2022-12-28T01:21:32;102076.66;;;0.56;81.07
73063;BME280;61230;46.328;19.972;2022-12-28T01:24:02;102081.84;;;0.56;80.86
73063;BME280;61230;46.328;19.972;2022-12-28T01:26:31;102076.88;;;0.47;80.36
73063;BME280;61230;46.328;19.972;2022-12-28T01:28:59;102088.63;;;0.25;81.07
73063;BME280;61230;46.328;19.972;2022-12-28T01:31:30;102077.78;;;0.08;82.11
73063;BME280;61230;46.328;19.972;2022-12-28T01:33:58;102075.06;;;0.14;81.69
73063;BME280;61230;46.328;19.972;2022-12-28T01:36:28;102061.13;;;0.20;79.90
73063;BME280;61230;46.328;19.972;2022-12-28T01:39:00;102067.31;;;0.13;82.62
73063;BME280;61230;46.328;19.972;2022-12-28T01:41:31;102066.88;;;-0.06;83.33
73063;BME280;61230;46.328;19.972;2022-12-28T01:46:39;102083.72;;;0.12;83.13
73063;BME280;61230;46.328;19.972;2022-12-28T01:49:31;102080.31;;;0.11;80.74
73063;BME280;61230;46.328;19.972;2022-12-28T01:52:05;102075.19;;;0.08;83.46
73063;BME280;61230;46.328;19.972;2022-12-28T01:54:58;102077.66;;;0.14;84.18
73063;BME280;61230;46.328;19.972;2022-12-28T01:57:29;102073.16;;;0.22;81.87
73063;BME280;61230;46.328;19.972;2022-12-28T02:00:02;102068.84;;;0.21;80.63
73063;BME280;61230;46.328;19.972;2022-12-28T02:02:51;102071.44;;;0.21;82.61
73063;BME280;61230;46.328;19.972;2022-12-28T02:05:24;102074.28;;;0.09;82.37
73063;BME280;61230;46.328;19.972;2022-12-28T02:08:01;102065.78;;;0.06;79.27
73063;BME280;61230;46.328;19.972;2022-12-28T02:10:32;102069.25;;;0.03;77.64
73063;BME280;61230;46.328;19.972;2022-12-28T02:13:15;102059.75;;;0.04;77.75
73063;BME280;61230;46.328;19.972;2022-12-28T02:15:44;102063.87;;;0.12;78.07
73063;BME280;61230;46.328;19.972;2022-12-28T02:18:13;102068.38;;;0.04;80.58
73063;BME280;61230;46.328;19.972;2022-12-28T02:26:32;102057.16;;;0.04;83.85
73063;BME280;61230;46.328;19.972;2022-12-28T02:40:58;102042.75;;;-0.07;85.12
73063;BME280;61230;46.328;19.972;2022-12-28T02:43:26;102017.41;;;-0.31;84.97
73063;BME280;61230;46.328;19.972;2022-12-28T02:45:54;102038.75;;;-0.21;84.51
73063;BME280;61230;46.328;19.972;2022-12-28T02:48:45;102042.19;;;-0.21;84.85
73063;BME280;61230;46.328;19.972;2022-12-28T03:06:22;102038.12;;;-0.32;83.44
73063;BME280;61230;46.328;19.972;2022-12-28T03:12:27;102043.13;;;-0.23;81.77
73063;BME280;61230;46.328;19.972;2022-12-28T03:15:10;102039.69;;;-0.24;81.65
73063;BME280;61230;46.328;19.972;2022-12-28T03:17:40;102028.53;;;-0.27;85.24
73063;BME280;61230;46.328;19.972;2022-12-28T03:20:30;102036.22;;;-0.24;85.10
73063;BME280;61230;46.328;19.972;2022-12-28T03:23:18;102036.06;;;-0.17;82.73
73063;BME280;61230;46.328;19.972;2022-12-28T03:26:09;102038.59;;;-0.14;80.96
73063;BME280;61230;46.328;19.972;2022-12-28T03:28:58;102041.97;;;-0.10;80.54
73063;BME280;61230;46.328;19.972;2022-12-28T03:31:47;102042.16;;;-0.19;85.29
73063;BME280;61230;46.328;19.972;2022-12-28T03:34:16;102050.09;;;-0.27;82.65
73063;BME280;61230;46.328;19.972;2022-12-28T03:37:31;102045.84;;;-0.29;85.46
73063;BME280;61230;46.328;19.972;2022-12-28T03:42:10;102047.22;;;-0.54;83.15
73063;BME280;61230;46.328;19.972;2022-12-28T03:45:15;102044.22;;;-0.35;81.88
73063;BME280;61230;46.328;19.972;2022-12-28T03:48:05;102045.72;;;-0.23;81.25
73063;BME280;61230;46.328;19.972;2022-12-28T03:50:35;102046.38;;;-0.15;80.81
73063;BME280;61230;46.328;19.972;2022-12-28T03:53:06;102042.16;;;-0.19;81.59
73063;BME280;61230;46.328;19.972;2022-12-28T03:55:34;102043.00;;;-0.17;81.69
73063;BME280;61230;46.328;19.972;2022-12-28T03:58:04;102047.31;;;-0.18;82.70
73063;BME280;61230;46.328;19.972;2022-12-28T04:00:32;102044.69;;;-0.16;84.27
73063;BME280;61230;46.328;19.972;2022-12-28T04:03:00;102035.34;;;-0.23;77.70
73063;BME280;61230;46.328;19.972;2022-12-28T04:05:28;102044.75;;;-0.61;78.82
73063;BME280;61230;46.328;19.972;2022-12-28T04:07:55;102050.13;;;-0.71;80.71
73063;BME280;61230;46.328;19.972;2022-12-28T04:10:23;102042.16;;;-0.61;79.92
73063;BME280;61230;46.328;19.972;2022-12-28T04:12:55;102035.22;;;-0.59;87.04
73063;BME280;61230;46.328;19.972;2022-12-28T04:15:23;102041.16;;;-0.53;87.85
73063;BME280;61230;46.328;19.972;2022-12-28T04:17:52;102040.41;;;-0.59;88.44
73063;BME280;61230;46.328;19.972;2022-12-28T04:20:19;102036.91;;;-0.56;88.54
73063;BME280;61230;46.328;19.972;2022-12-28T04:22:49;102033.56;;;-0.61;88.16
73063;BME280;61230;46.328;19.972;2022-12-28T04:25:17;102039.53;;;-0.57;84.40
73063;BME280;61230;46.328;19.972;2022-12-28T04:27:45;102037.75;;;-0.54;84.83
73063;BME280;61230;46.328;19.972;2022-12-28T04:30:13;102040.37;;;-0.57;88.54
73063;BME280;61230;46.328;19.972;2022-12-28T04:32:41;102037.56;;;-0.46;88.32
73063;BME280;61230;46.328;19.972;2022-12-28T04:35:08;102032.47;;;-0.51;87.49
73063;BME280;61230;46.328;19.972;2022-12-28T04:37:39;102032.47;;;-0.51;87.97
73063;BME280;61230;46.328;19.972;2022-12-28T04:40:07;102037.75;;;-0.55;85.18
73063;BME280;61230;46.328;19.972;2022-12-28T04:42:34;102040.09;;;-0.45;82.33
73063;BME280;61230;46.328;19.972;2022-12-28T04:45:02;102044.38;;;-0.42;81.09
73063;BME280;61230;46.328;19.972;2022-12-28T04:47:30;102041.66;;;-0.36;83.78
73063;BME280;61230;46.328;19.972;2022-12-28T04:49:58;102040.91;;;-0.41;85.14
73063;BME280;61230;46.328;19.972;2022-12-28T04:52:25;102032.63;;;-0.59;85.50
73063;BME280;61230;46.328;19.972;2022-12-28T04:54:53;102024.19;;;-0.67;87.78
73063;BME280;61230;46.328;19.972;2022-12-28T04:57:20;102040.72;;;-0.75;87.63
73063;BME280;61230;46.328;19.972;2022-12-28T04:59:48;102046.91;;;-0.84;85.32
73063;BME280;61230;46.328;19.972;2022-12-28T05:02:16;102038.44;;;-0.90;86.35
73063;BME280;61230;46.328;19.972;2022-12-28T05:04:43;102036.69;;;-0.88;85.48
73063;BME280;61230;46.328;19.972;2022-12-28T05:07:11;102031.53;;;-0.90;88.18
73063;BME280;61230;46.328;19.972;2022-12-28T05:09:38;102028.12;;;-0.92;88.91
73063;BME280;61230;46.328;19.972;2022-12-28T05:12:06;102027.38;;;-0.98;89.48
73063;BME280;61230;46.328;19.972;2022-12-28T05:14:34;102029.03;;;-0.94;89.94
73063;BME280;61230;46.328;19.972;2022-12-28T05:17:04;102030.66;;;-0.89;89.54
73063;BME280;61230;46.328;19.972;2022-12-28T05:19:31;102031.25;;;-0.76;87.79
73063;BME280;61230;46.328;19.972;2022-12-28T05:21:59;102032.09;;;-0.74;80.86
73063;BME280;61230;46.328;19.972;2022-12-28T05:24:26;102025.84;;;-0.63;85.41
73063;BME280;61230;46.328;19.972;2022-12-28T05:26:54;102028.72;;;-0.79;87.36
73063;BME280;61230;46.328;19.972;2022-12-28T05:29:22;102029.75;;;-0.88;88.03
73063;BME280;61230;46.328;19.972;2022-12-28T05:31:49;102025.56;;;-0.92;88.46
73063;BME280;61230;46.328;19.972;2022-12-28T05:34:17;102032.50;;;-0.94;88.57
73063;BME280;61230;46.328;19.972;2022-12-28T05:36:44;102023.34;;;-1.11;88.64
73063;BME280;61230;46.328;19.972;2022-12-28T05:39:12;102025.06;;;-1.13;89.41
73063;BME280;61230;46.328;19.972;2022-12-28T05:41:40;102016.31;;;-1.05;89.26
73063;BME280;61230;46.328;19.972;2022-12-28T05:44:07;102025.63;;;-0.96;88.99
73063;BME280;61230;46.328;19.972;2022-12-28T05:46:35;102016.31;;;-1.05;88.94
73063;BME280;61230;46.328;19.972;2022-12-28T05:49:02;102017.84;;;-0.95;88.96
73063;BME280;61230;46.328;19.972;2022-12-28T05:51:31;102015.31;;;-0.98;88.71
73063;BME280;61230;46.328;19.972;2022-12-28T05:54:00;102014.69;;;-1.09;88.56
73063;BME280;61230;46.328;19.972;2022-12-28T05:56:31;102016.72;;;-1.26;89.34
73063;BME280;61230;46.328;19.972;2022-12-28T05:59:01;102020.06;;;-1.21;89.15
73063;BME280;61230;46.328;19.972;2022-12-28T06:01:32;102026.72;;;-1.09;88.91
73063;BME280;61230;46.328;19.972;2022-12-28T06:04:06;102021.72;;;-1.17;88.03
73063;BME280;61230;46.328;19.972;2022-12-28T06:06:34;102021.47;;;-1.05;87.42
73063;BME280;61230;46.328;19.972;2022-12-28T06:09:03;102014.94;;;-1.24;87.87
73063;BME280;61230;46.328;19.972;2022-12-28T06:11:31;102019.16;;;-1.19;88.57
73063;BME280;61230;46.328;19.972;2022-12-28T06:13:59;102016.47;;;-1.12;87.69
73063;BME280;61230;46.328;19.972;2022-12-28T06:16:31;102021.56;;;-1.08;87.74
73063;BME280;61230;46.328;19.972;2022-12-28T06:19:06;102018.97;;;-1.09;87.61
73063;BME280;61230;46.328;19.972;2022-12-28T06:21:36;102012.84;;;-1.02;87.51
73063;BME280;61230;46.328;19.972;2022-12-28T06:24:05;102018.94;;;-1.06;87.12
73063;BME280;61230;46.328;19.972;2022-12-28T06:26:34;102017.09;;;-1.00;86.72
73063;BME280;61230;46.328;19.972;2022-12-28T06:29:03;102018.00;;;-1.02;87.58
73063;BME280;61230;46.328;19.972;2022-12-28T06:31:34;102012.75;;;-0.98;87.22
73063;BME280;61230;46.328;19.972;2022-12-28T06:34:04;102012.84;;;-1.02;88.17
73063;BME280;61230;46.328;19.972;2022-12-28T06:36:37;102012.94;;;-1.08;89.59
73063;BME280;61230;46.328;19.972;2022-12-28T06:39:08;102019.84;;;-1.10;89.08
73063;BME280;61230;46.328;19.972;2022-12-28T06:41:37;102018.22;;;-1.16;89.74
73063;BME280;61230;46.328;19.972;2022-12-28T06:44:06;102024.25;;;-1.16;89.86
73063;BME280;61230;46.328;19.972;2022-12-28T06:46:34;102019.84;;;-1.10;88.51
73063;BME280;61230;46.328;19.972;2022-12-28T06:49:03;101999.37;;;-1.20;88.25
73063;BME280;61230;46.328;19.972;2022-12-28T06:51:32;102024.97;;;-1.07;87.85
73063;BME280;61230;46.328;19.972;2022-12-28T06:54:05;102037.81;;;-1.04;89.45
73063;BME280;61230;46.328;19.972;2022-12-28T06:56:34;102048.16;;;-1.03;88.42
73063;BME280;61230;46.328;19.972;2022-12-28T06:59:02;102047.44;;;-1.11;88.46
73063;BME280;61230;46.328;19.972;2022-12-28T07:01:37;102042.44;;;-1.22;87.52
73063;BME280;61230;46.328;19.972;2022-12-28T07:04:07;102041.31;;;-1.07;89.28
73063;BME280;61230;46.328;19.972;2022-12-28T07:06:38;102041.06;;;-0.93;87.34
73063;BME280;61230;46.328;19.972;2022-12-28T07:09:09;102038.25;;;-0.81;86.92
73063;BME280;61230;46.328;19.972;2022-12-28T07:11:37;102036.34;;;-0.72;87.38
73063;BME280;61230;46.328;19.972;2022-12-28T07:14:05;102031.03;;;-0.63;87.67
73063;BME280;61230;46.328;19.972;2022-12-28T07:16:32;102028.22;;;-0.53;87.57
73063;BME280;61230;46.328;19.972;2022-12-28T07:18:59;102028.91;;;-0.45;87.65
73063;BME280;61230;46.328;19.972;2022-12-28T07:21:32;102026.97;;;-0.34;88.30
73063;BME280;61230;46.328;19.972;2022-12-28T07:24:01;102030.44;;;-0.35;88.46
73063;BME280;61230;46.328;19.972;2022-12-28T07:26:31;102034.50;;;-0.24;87.81
73063;BME280;61230;46.328;19.972;2022-12-28T07:29:00;102042.28;;;-0.25;87.92
73063;BME280;61230;46.328;19.972;2022-12-28T07:31:31;102040.91;;;-0.41;88.51
73063;BME280;61230;46.328;19.972;2022-12-28T07:34:04;102049.47;;;-0.38;88.61
73063;BME280;61230;46.328;19.972;2022-12-28T07:36:32;102049.47;;;-0.39;87.57
73063;BME280;61230;46.328;19.972;2022-12-28T07:39:00;102046.19;;;-0.06;87.78
73063;BME280;61230;46.328;19.972;2022-12-28T07:41:30;102052.72;;;0.10;88.73
73063;BME280;61230;46.328;19.972;2022-12-28T07:43:59;102046.63;;;0.13;88.80
73063;BME280;61230;46.328;19.972;2022-12-28T07:46:29;102046.34;;;0.25;88.26
73063;BME280;61230;46.328;19.972;2022-12-28T07:48:57;102050.41;;;0.36;88.72
73063;BME280;61230;46.328;19.972;2022-12-28T07:51:31;102045.97;;;0.40;87.27
73063;BME280;61230;46.328;19.972;2022-12-28T07:53:59;102055.72;;;0.30;84.86
73063;BME280;61230;46.328;19.972;2022-12-28T07:56:29;102061.06;;;0.60;85.50
73063;BME280;61230;46.328;19.972;2022-12-28T07:58:59;102061.47;;;0.77;83.85
73063;BME280;61230;46.328;19.972;2022-12-28T08:01:29;102051.56;;;0.92;83.17
73063;BME280;61230;46.328;19.972;2022-12-28T08:04:01;102045.16;;;1.05;81.98
73063;BME280;61230;46.328;19.972;2022-12-28T08:06:33;102044.78;;;1.21;81.61
73063;BME280;61230;46.328;19.972;2022-12-28T08:09:01;102039.19;;;1.36;80.54
73063;BME280;61230;46.328;19.972;2022-12-28T08:11:31;102043.09;;;1.50;79.25
73063;BME280;61230;46.328;19.972;2022-12-28T08:14:00;102046.31;;;1.58;79.01
73063;BME280;61230;46.328;19.972;2022-12-28T08:16:31;102053.00;;;1.65;78.78
73063;BME280;61230;46.328;19.972;2022-12-28T08:18:59;102067.34;;;1.79;79.80
73063;BME280;61230;46.328;19.972;2022-12-28T08:21:31;102068.84;;;1.86;79.17
73063;BME280;61230;46.328;19.972;2022-12-28T08:23:59;102053.97;;;1.91;79.03
73063;BME280;61230;46.328;19.972;2022-12-28T08:26:36;102056.47;;;1.95;79.20
73063;BME280;61230;46.328;19.972;2022-12-28T08:29:09;102055.19;;;2.08;79.11
73063;BME280;61230;46.328;19.972;2022-12-28T08:31:39;102058.34;;;2.18;78.96
73063;BME280;61230;46.328;19.972;2022-12-28T08:34:10;102064.19;;;2.24;79.82
73063;BME280;61230;46.328;19.972;2022-12-28T08:36:38;102063.78;;;2.38;78.97
73063;BME280;61230;46.328;19.972;2022-12-28T08:39:07;102072.94;;;2.50;78.64
73063;BME280;61230;46.328;19.972;2022-12-28T08:41:35;102067.37;;;2.60;78.25
73063;BME280;61230;46.328;19.972;2022-12-28T08:44:03;102074.94;;;2.68;78.13
73063;BME280;61230;46.328;19.972;2022-12-28T08:46:32;102074.56;;;2.78;78.27
73063;BME280;61230;46.328;19.972;2022-12-28T08:49:01;102080.25;;;2.89;77.73
73063;BME280;61230;46.328;19.972;2022-12-28T08:53:58;102081.47;;;3.06;77.98
73063;BME280;61230;46.328;19.972;2022-12-28T08:56:29;102076.06;;;3.12;77.62
73063;BME280;61230;46.328;19.972;2022-12-28T08:58:57;102076.53;;;3.23;77.44
73063;BME280;61230;46.328;19.972;2022-12-28T09:01:34;102073.72;;;3.29;77.30
73063;BME280;61230;46.328;19.972;2022-12-28T09:04:19;102072.53;;;3.37;77.45
73063;BME280;61230;46.328;19.972;2022-12-28T09:06:48;102064.34;;;3.48;77.96
73063;BME280;61230;46.328;19.972;2022-12-28T09:09:17;102054.56;;;3.55;77.31
73063;BME280;61230;46.328;19.972;2022-12-28T09:11:46;102048.28;;;3.60;76.43
73063;BME280;61230;46.328;19.972;2022-12-28T09:14:14;102049.09;;;3.62;76.01
73063;BME280;61230;46.328;19.972;2022-12-28T09:16:50;102052.12;;;3.73;75.61
73063;BME280;61230;46.328;19.972;2022-12-28T09:19:18;102059.59;;;3.82;75.72
73063;BME280;61230;46.328;19.972;2022-12-28T09:21:51;102042.16;;;3.84;74.87
73063;BME280;61230;46.328;19.972;2022-12-28T09:24:21;102040.00;;;3.95;74.75
73063;BME280;61230;46.328;19.972;2022-12-28T09:26:49;102034.56;;;4.01;74.22
73063;BME280;61230;46.328;19.972;2022-12-28T09:29:19;102030.66;;;4.12;74.21
73063;BME280;61230;46.328;19.972;2022-12-28T09:31:47;102037.22;;;4.22;74.03
73063;BME280;61230;46.328;19.972;2022-12-28T09:34:14;102025.84;;;4.24;73.74
73063;BME280;61230;46.328;19.972;2022-12-28T09:37:02;102021.94;;;4.34;73.05
73063;BME280;61230;46.328;19.972;2022-12-28T09:39:30;102022.63;;;4.39;73.35
73063;BME280;61230;46.328;19.972;2022-12-28T09:42:21;102013.19;;;4.57;73.03
73063;BME280;61230;46.328;19.972;2022-12-28T09:47:47;102008.78;;;4.79;72.53
73063;BME280;61230;46.328;19.972;2022-12-28T09:55:34;102011.66;;;5.13;70.22
73063;BME280;61230;46.328;19.972;2022-12-28T09:58:04;102003.41;;;5.22;70.13
73063;BME280;61230;46.328;19.972;2022-12-28T10:00:52;101998.03;;;5.26;69.63
73063;BME280;61230;46.328;19.972;2022-12-28T10:03:23;101995.87;;;5.35;69.41
73063;BME280;61230;46.328;19.972;2022-12-28T10:05:54;101988.50;;;5.45;68.78
73063;BME280;61230;46.328;19.972;2022-12-28T10:08:24;101986.25;;;5.56;68.68
73063;BME280;61230;46.328;19.972;2022-12-28T10:10:59;101986.66;;;5.65;67.97
73063;BME280;61230;46.328;19.972;2022-12-28T10:13:35;101980.94;;;5.76;66.82
73063;BME280;61230;46.328;19.972;2022-12-28T10:16:21;101977.91;;;5.85;65.82
73063;BME280;61230;46.328;19.972;2022-12-28T10:18:50;101980.84;;;5.96;64.98
73063;BME280;61230;46.328;19.972;2022-12-28T10:21:19;101967.09;;;5.74;64.00
73063;BME280;61230;46.328;19.972;2022-12-28T10:23:56;101972.94;;;5.79;65.13
73063;BME280;61230;46.328;19.972;2022-12-28T10:26:45;101964.75;;;6.05;63.80
73063;BME280;61230;46.328;19.972;2022-12-28T10:29:23;101956.47;;;6.14;63.97
73063;BME280;61230;46.328;19.972;2022-12-28T10:32:00;101948.81;;;6.28;63.20
73063;BME280;61230;46.328;19.972;2022-12-28T10:34:29;101959.56;;;6.40;63.25
73063;BME280;61230;46.328;19.972;2022-12-28T10:37:30;101945.78;;;6.36;62.81
73063;BME280;61230;46.328;19.972;2022-12-28T10:40:22;101948.03;;;6.61;63.82
73063;BME280;61230;46.328;19.972;2022-12-28T10:42:52;101943.13;;;6.72;61.98
73063;BME280;61230;46.328;19.972;2022-12-28T10:48:00;101925.09;;;6.83;61.81
73063;BME280;61230;46.328;19.972;2022-12-28T10:50:48;101925.69;;;6.88;61.59
73063;BME280;61230;46.328;19.972;2022-12-28T10:53:24;101918.00;;;6.85;60.91
73063;BME280;61230;46.328;19.972;2022-12-28T11:01:41;101888.25;;;7.03;59.65
73063;BME280;61230;46.328;19.972;2022-12-28T11:04:16;101887.16;;;7.07;59.88
73063;BME280;61230;46.328;19.972;2022-12-28T11:06:52;101892.69;;;7.01;59.12
73063;BME280;61230;46.328;19.972;2022-12-28T11:09:28;101890.09;;;7.01;59.83
73063;BME280;61230;46.328;19.972;2022-12-28T11:12:23;101890.09;;;7.01;59.31
73063;BME280;61230;46.328;19.972;2022-12-28T11:14:51;101890.44;;;7.11;59.53
73063;BME280;61230;46.328;19.972;2022-12-28T11:17:27;101884.03;;;7.16;60.19
73063;BME280;61230;46.328;19.972;2022-12-28T11:20:06;101877.97;;;7.16;59.58
73063;BME280;61230;46.328;19.972;2022-12-28T11:22:36;101879.22;;;7.24;59.50
73063;BME280;61230;46.328;19.972;2022-12-28T11:25:04;101877.72;;;7.20;58.69
73063;BME280;61230;46.328;19.972;2022-12-28T11:27:33;101868.09;;;7.21;58.59
73063;BME280;61230;46.328;19.972;2022-12-28T11:30:03;101862.66;;;7.24;57.88
73063;BME280;61230;46.328;19.972;2022-12-28T11:32:31;101854.59;;;7.28;57.58
73063;BME280;61230;46.328;19.972;2022-12-28T11:35:00;101863.69;;;7.21;57.73
73063;BME280;61230;46.328;19.972;2022-12-28T11:37:28;101862.16;;;7.33;58.50
73063;BME280;61230;46.328;19.972;2022-12-28T11:39:56;101863.59;;;7.38;58.46
73063;BME280;61230;46.328;19.972;2022-12-28T11:45:12;101855.06;;;7.50;59.70
73063;BME280;61230;46.328;19.972;2022-12-28T11:47:40;101848.06;;;7.51;59.91
73063;BME280;61230;46.328;19.972;2022-12-28T11:53:16;101851.38;;;7.55;61.01
73063;BME280;61230;46.328;19.972;2022-12-28T11:55:54;101848.56;;;7.42;61.73
73063;BME280;61230;46.328;19.972;2022-12-28T12:12:01;101836.47;;;7.71;61.45
73063;BME280;61230;46.328;19.972;2022-12-28T12:14:37;101808.16;;;7.62;63.65
73063;BME280;61230;46.328;19.972;2022-12-28T12:17:21;101814.31;;;7.76;63.09
73063;BME280;61230;46.328;19.972;2022-12-28T12:19:56;101825.12;;;7.70;62.19
73063;BME280;61230;46.328;19.972;2022-12-28T12:22:28;101820.25;;;7.64;60.79
73063;BME280;61230;46.328;19.972;2022-12-28T12:25:19;101817.16;;;7.58;60.71
73063;BME280;61230;46.328;19.972;2022-12-28T12:27:58;101817.84;;;7.45;60.25
73063;BME280;61230;46.328;19.972;2022-12-28T12:30:28;101826.09;;;7.38;61.02
73063;BME280;61230;46.328;19.972;2022-12-28T12:33:03;101818.16;;;7.24;61.92
73063;BME280;61230;46.328;19.972;2022-12-28T12:35:41;101818.53;;;7.18;62.64
73063;BME280;61230;46.328;19.972;2022-12-28T12:38:27;101821.81;;;7.21;62.65
73063;BME280;61230;46.328;19.972;2022-12-28T12:43:35;101826.09;;;7.07;62.21
73063;BME280;61230;46.328;19.972;2022-12-28T12:51:55;101809.41;;;6.78;62.91
73063;BME280;61230;46.328;19.972;2022-12-28T12:55:00;101815.22;;;6.83;63.48
73063;BME280;61230;46.328;19.972;2022-12-28T13:03:55;101805.06;;;6.77;64.40
73063;BME280;61230;46.328;19.972;2022-12-28T13:06:28;101806.16;;;6.73;64.73
73063;BME280;61230;46.328;19.972;2022-12-28T13:08:59;101808.78;;;6.73;64.58
73063;BME280;61230;46.328;19.972;2022-12-28T13:11:35;101802.25;;;6.64;64.88
73063;BME280;61230;46.328;19.972;2022-12-28T13:14:04;101805.81;;;6.63;64.79
73063;BME280;61230;46.328;19.972;2022-12-28T13:16:32;101797.38;;;6.58;65.45
73063;BME280;61230;46.328;19.972;2022-12-28T13:19:04;101799.16;;;6.58;65.14
73063;BME280;61230;46.328;19.972;2022-12-28T13:21:43;101806.22;;;6.56;65.13
73063;BME280;61230;46.328;19.972;2022-12-28T13:24:35;101804.69;;;6.52;64.73
73063;BME280;61230;46.328;19.972;2022-12-28T13:27:19;101803.09;;;6.49;64.72
73063;BME280;61230;46.328;19.972;2022-12-28T13:29:51;101799.94;;;6.43;65.42
73063;BME280;61230;46.328;19.972;2022-12-28T13:32:24;101795.47;;;6.45;65.17
73063;BME280;61230;46.328;19.972;2022-12-28T13:34:52;101774.72;;;6.42;66.17
73063;BME280;61230;46.328;19.972;2022-12-28T13:37:20;101785.19;;;6.42;66.53
73063;BME280;61230;46.328;19.972;2022-12-28T13:39:48;101785.44;;;6.37;66.06
73063;BME280;61230;46.328;19.972;2022-12-28T13:42:43;101777.69;;;6.35;66.53
73063;BME280;61230;46.328;19.972;2022-12-28T13:45:18;101774.53;;;6.29;67.08
73063;BME280;61230;46.328;19.972;2022-12-28T13:47:48;101770.91;;;6.31;67.37
73063;BME280;61230;46.328;19.972;2022-12-28T13:50:28;101776.03;;;6.33;67.62
73063;BME280;61230;46.328;19.972;2022-12-28T13:53:02;101772.63;;;6.32;67.70
73063;BME280;61230;46.328;19.972;2022-12-28T13:55:45;101769.31;;;6.29;67.87
73063;BME280;61230;46.328;19.972;2022-12-28T13:58:35;101770.00;;;6.32;67.81
73063;BME280;61230;46.328;19.972;2022-12-28T14:01:12;101757.53;;;6.37;67.61
73063;BME280;61230;46.328;19.972;2022-12-28T14:03:41;101752.13;;;6.41;68.00
73063;BME280;61230;46.328;19.972;2022-12-28T14:06:14;101758.56;;;6.51;67.70
73063;BME280;61230;46.328;19.972;2022-12-28T14:08:43;101758.72;;;6.48;68.24
73063;BME280;61230;46.328;19.972;2022-12-28T14:11:12;101757.53;;;6.53;68.22
73063;BME280;61230;46.328;19.972;2022-12-28T14:13:40;101760.25;;;6.52;68.41
73063;BME280;61230;46.328;19.972;2022-12-28T14:16:08;101756.88;;;6.50;68.67
73063;BME280;61230;46.328;19.972;2022-12-28T14:18:37;101760.56;;;6.46;68.90
73063;BME280;61230;46.328;19.972;2022-12-28T14:21:05;101762.59;;;6.41;69.27
73063;BME280;61230;46.328;19.972;2022-12-28T14:23:35;101761.47;;;6.29;69.80
73063;BME280;61230;46.328;19.972;2022-12-28T14:26:06;101763.47;;;6.24;70.41
73063;BME280;61230;46.328;19.972;2022-12-28T14:28:43;101755.25;;;6.14;70.96
73063;BME280;61230;46.328;19.972;2022-12-28T14:31:20;101751.47;;;6.04;71.51
73063;BME280;61230;46.328;19.972;2022-12-28T14:33:52;101741.53;;;5.94;72.08
73063;BME280;61230;46.328;19.972;2022-12-28T14:36:25;101744.75;;;5.82;72.66
73063;BME280;61230;46.328;19.972;2022-12-28T14:38:55;101744.44;;;5.70;73.31
73063;BME280;61230;46.328;19.972;2022-12-28T14:41:38;101742.50;;;5.57;74.00
73063;BME280;61230;46.328;19.972;2022-12-28T14:44:15;101736.84;;;5.49;74.61
73063;BME280;61230;46.328;19.972;2022-12-28T14:46:44;101739.91;;;5.40;75.09